Time;durP1;ratioP1;P1;durP2;ratioP2;P2;SDS_P1;SDS_P2;PMS_P1;PMS_P2;Temp;Humidity;BMP_temperature;BMP_pressure;BME280_temperature;BME280_humidity;BME280_pressure;Samples;Min_cycle;Max_cycle;Signal;HPM_P1;HPM_P2
2023/10/28 00:00:07;;;;;;;2.50;1.40;;;;;;;16.34;65.02;92532.69;521448;28;875;-42
2023/10/28 00:00:25;;;;;;;3.65;1.42;;;;;;;16.35;65.00;92534.16;520645;28;1562;-42
2023/10/28 00:00:42;;;;;;;1.73;1.38;;;;;;;16.35;65.01;92536.94;519590;28;1971;-42
2023/10/28 00:00:58;;;;;;;1.38;1.20;;;;;;;16.23;64.99;92517.47;520754;28;1618;-42
2023/10/28 00:01:14;;;;;;;1.57;1.23;;;;;;;16.35;64.95;92534.16;519581;28;846;-42
2023/10/28 00:01:30;;;;;;;1.30;1.15;;;;;;;16.35;64.99;92531.38;520813;28;860;-42
2023/10/28 00:01:45;;;;;;;1.40;1.30;;;;;;;16.35;65.18;92532.09;519712;28;960;-42
2023/10/28 00:02:01;;;;;;;1.37;1.27;;;;;;;16.36;64.92;92532.81;519641;28;847;-42
2023/10/28 00:02:16;;;;;;;1.30;1.20;;;;;;;16.36;64.96;92538.38;519610;28;797;-42
2023/10/28 00:02:31;;;;;;;1.40;1.30;;;;;;;16.36;65.05;92538.38;519940;28;1006;-42
2023/10/28 00:02:48;;;;;;;1.60;1.50;;;;;;;16.35;65.06;92532.09;521729;28;822;-42
2023/10/28 00:03:05;;;;;;;2.13;1.60;;;;;;;16.36;65.10;92533.53;520957;28;827;-42
2023/10/28 00:03:23;;;;;;;1.80;1.40;;;;;;;16.35;65.00;92534.88;519631;28;884;-42
2023/10/28 00:03:39;;;;;;;1.33;1.20;;;;;;;16.36;64.94;92532.81;520624;28;1531;-42
2023/10/28 00:03:56;;;;;;;2.00;1.50;;;;;;;16.36;64.81;92533.53;519645;28;821;-42
2023/10/28 00:04:12;;;;;;;1.88;1.40;;;;;;;16.37;64.92;92528.72;520753;28;974;-42
2023/10/28 00:04:28;;;;;;;1.85;1.67;;;;;;;16.37;64.89;92529.41;521681;28;906;-42
2023/10/28 00:04:43;;;;;;;1.50;1.40;;;;;;;16.36;64.93;92527.97;520420;28;792;-42
2023/10/28 00:04:58;;;;;;;2.35;1.30;;;;;;;16.37;64.88;92529.41;519550;28;868;-42
2023/10/28 00:05:14;;;;;;;2.77;1.40;;;;;;;16.37;64.81;92529.41;519594;28;1036;-42
2023/10/28 00:05:29;;;;;;;1.50;1.30;;;;;;;16.37;64.75;92537.78;521595;28;836;-42
2023/10/28 00:05:45;;;;;;;1.77;1.48;;;;;;;16.33;64.70;92534.75;521613;28;798;-42
2023/10/28 00:06:01;;;;;;;1.93;1.57;;;;;;;16.36;64.65;92532.81;521663;28;828;-42
2023/10/28 00:06:16;;;;;;;3.05;1.55;;;;;;;16.38;64.60;92532.94;521561;28;860;-41
2023/10/28 00:06:32;;;;;;;2.33;1.33;;;;;;;16.36;64.51;92527.97;521543;28;884;-42
2023/10/28 00:06:47;;;;;;;1.20;1.17;;;;;;;16.37;64.54;92525.91;521577;28;876;-42
2023/10/28 00:07:02;;;;;;;1.40;1.30;;;;;;;16.37;64.49;92528.72;521496;28;1063;-42
2023/10/28 00:07:18;;;;;;;2.17;1.30;;;;;;;16.35;64.55;92520.94;521616;28;777;-42
2023/10/28 00:07:33;;;;;;;1.63;1.10;;;;;;;16.36;64.62;92527.25;521460;28;1614;-42
2023/10/28 00:07:49;;;;;;;1.20;1.10;;;;;;;16.35;64.64;92520.25;521319;28;840;-42
2023/10/28 00:08:04;;;;;;;3.10;1.30;;;;;;;16.34;64.62;92530.66;521524;28;761;-41
2023/10/28 00:08:20;;;;;;;3.30;1.33;;;;;;;16.34;64.62;92521.56;521525;28;1583;-42
2023/10/28 00:08:36;;;;;;;3.97;1.40;;;;;;;16.31;64.51;92522.75;521453;28;1000;-42
2023/10/28 00:08:51;;;;;;;3.17;1.35;;;;;;;16.34;64.47;92524.34;521649;28;896;-42
2023/10/28 00:09:07;;;;;;;1.43;1.30;;;;;;;16.33;64.60;92523.63;521639;28;888;-42
2023/10/28 00:09:22;;;;;;;1.75;1.40;;;;;;;16.34;64.40;92524.34;521352;28;1180;-42
2023/10/28 00:09:40;;;;;;;1.53;1.30;;;;;;;16.33;64.45;92522.91;521299;28;966;-42
2023/10/28 00:09:55;;;;;;;1.90;1.63;;;;;;;16.33;64.51;92525.69;521362;28;848;-41
2023/10/28 00:10:11;;;;;;;2.07;1.80;;;;;;;16.33;64.38;92529.19;521110;28;1240;-42
2023/10/28 00:10:28;;;;;;;1.57;1.47;;;;;;;16.21;64.38;92505.47;519756;28;881;-42
2023/10/28 00:10:45;;;;;;;2.00;1.30;;;;;;;16.33;64.42;92526.41;520930;28;914;-42
2023/10/28 00:11:00;;;;;;;2.70;1.33;;;;;;;16.32;64.43;92522.19;521418;28;880;-41
2023/10/28 00:11:19;;;;;;;1.90;1.20;;;;;;;16.32;64.38;92527.00;521412;28;882;-41
2023/10/28 00:11:35;;;;;;;1.67;1.33;;;;;;;16.31;64.36;92528.34;521406;28;1104;-41
2023/10/28 00:11:51;;;;;;;2.72;1.63;;;;;;;16.30;64.38;92526.91;521592;28;890;-41
2023/10/28 00:12:08;;;;;;;2.10;1.73;;;;;;;16.30;64.33;92527.63;521544;28;833;-41
2023/10/28 00:12:24;;;;;;;1.80;1.58;;;;;;;16.30;64.31;92527.63;520880;28;817;-41
2023/10/28 00:12:40;;;;;;;1.52;1.40;;;;;;;16.29;64.32;92531.00;520501;28;897;-41
2023/10/28 00:12:55;;;;;;;1.30;1.20;;;;;;;16.29;64.46;92528.22;521505;28;888;-41
2023/10/28 00:13:12;;;;;;;1.20;1.10;;;;;;;16.27;64.30;92526.06;521288;28;1167;-42
2023/10/28 00:13:27;;;;;;;1.52;1.25;;;;;;;16.27;64.50;92528.84;521312;28;968;-42
2023/10/28 00:13:43;;;;;;;1.57;1.47;;;;;;;16.26;64.46;92526.66;520855;28;891;-42
2023/10/28 00:13:58;;;;;;;1.63;1.53;;;;;;;16.27;64.47;92533.69;519593;28;789;-42
2023/10/28 00:14:15;;;;;;;2.10;1.60;;;;;;;16.25;64.50;92528.72;519447;28;928;-42
2023/10/28 00:14:31;;;;;;;1.92;1.45;;;;;;;16.25;64.42;92531.50;520031;28;1223;-41
2023/10/28 00:14:46;;;;;;;1.90;1.53;;;;;;;16.25;64.62;92534.28;519527;28;989;-41
2023/10/28 00:15:01;;;;;;;2.35;1.58;;;;;;;16.24;64.55;92532.81;519499;28;896;-41
2023/10/28 00:15:20;;;;;;;2.40;1.47;;;;;;;16.24;64.56;92535.63;519335;28;865;-41
2023/10/28 00:15:35;;;;;;;1.83;1.35;;;;;;;16.25;64.55;92536.34;520281;28;940;-41
2023/10/28 00:15:51;;;;;;;1.33;1.23;;;;;;;16.22;64.54;92529.94;521578;28;939;-41
2023/10/28 00:16:06;;;;;;;1.47;1.37;;;;;;;16.22;64.45;92532.00;521457;28;1175;-41
2023/10/28 00:16:22;;;;;;;1.48;1.38;;;;;;;16.22;64.43;92532.00;521449;28;984;-41
2023/10/28 00:16:38;;;;;;;1.40;1.20;;;;;;;16.21;64.45;92524.97;521368;28;952;-41
2023/10/28 00:16:54;;;;;;;1.90;1.30;;;;;;;16.19;64.42;92527.63;521401;28;875;-41
2023/10/28 00:17:09;;;;;;;2.67;1.63;;;;;;;16.20;64.61;92535.38;520272;28;1660;-41
2023/10/28 00:17:25;;;;;;;4.38;1.70;;;;;;;16.19;64.60;92530.44;519459;28;901;-41
2023/10/28 00:17:40;;;;;;;3.63;1.50;;;;;;;16.18;64.51;92528.97;520140;28;1184;-41
2023/10/28 00:17:55;;;;;;;1.57;1.33;;;;;;;16.19;64.40;92536.00;521801;28;918;-41
2023/10/28 00:18:11;;;;;;;2.28;1.50;;;;;;;16.17;64.34;92530.31;521739;28;931;-41
2023/10/28 00:18:26;;;;;;;3.63;1.37;;;;;;;16.17;64.43;92538.66;521817;28;832;-41
2023/10/28 00:18:41;;;;;;;4.10;1.30;;;;;;;16.15;64.52;92536.50;521542;28;812;-41
2023/10/28 00:18:57;;;;;;;3.58;1.30;;;;;;;16.15;64.33;92533.72;521740;28;1128;-41
2023/10/28 00:19:12;;;;;;;3.03;1.20;;;;;;;16.14;64.20;92537.09;521401;28;804;-41
2023/10/28 00:19:28;;;;;;;3.63;1.20;;;;;;;16.13;64.28;92541.94;519810;28;831;-41
2023/10/28 00:19:44;;;;;;;2.67;1.20;;;;;;;16.13;64.17;92546.78;521383;28;1613;-41
2023/10/28 00:20:04;;;;;;;1.85;1.20;;;;;;;16.11;64.14;92544.63;521027;28;792;-41
2023/10/28 00:20:21;;;;;;;1.90;1.23;;;;;;;16.12;64.12;92539.75;521738;28;908;-41
2023/10/28 00:20:37;;;;;;;2.33;1.00;;;;;;;16.11;64.18;92544.63;521602;28;1984;-41
2023/10/28 00:20:52;;;;;;;3.00;1.10;;;;;;;16.09;64.08;92544.47;521877;28;816;-41
2023/10/28 00:21:09;;;;;;;1.57;1.17;;;;;;;16.09;64.03;92552.81;521895;28;829;-41
2023/10/28 00:21:25;;;;;;;1.27;1.17;;;;;;;16.07;63.98;92546.44;521723;28;932;-41
2023/10/28 00:21:40;;;;;;;1.40;1.30;;;;;;;16.05;64.12;92543.53;521369;28;812;-41
2023/10/28 00:21:55;;;;;;;2.00;1.30;;;;;;;16.04;64.14;92542.06;521861;28;802;-41
2023/10/28 00:22:11;;;;;;;1.80;1.23;;;;;;;16.01;64.21;92543.28;521805;28;1172;-41
2023/10/28 00:22:26;;;;;;;1.55;1.30;;;;;;;15.99;64.19;92543.88;521502;28;1673;-41
2023/10/28 00:22:42;;;;;;;1.80;1.40;;;;;;;15.98;64.35;92550.06;521789;28;907;-41
2023/10/28 00:22:58;;;;;;;1.40;1.20;;;;;;;15.96;64.52;92547.88;521866;28;823;-41
2023/10/28 00:23:17;;;;;;;2.50;1.40;;;;;;;15.94;64.62;92542.91;521843;28;919;-41
2023/10/28 00:23:33;;;;;;;2.75;1.40;;;;;;;15.92;64.72;92547.63;521696;28;1072;-41
2023/10/28 00:23:48;;;;;;;1.55;1.20;;;;;;;15.88;64.79;92541.81;521882;28;904;-41
2023/10/28 00:24:04;;;;;;;1.87;1.27;;;;;;;15.85;64.86;92538.19;521822;28;1578;-41
2023/10/28 00:24:19;;;;;;;2.08;1.38;;;;;;;15.81;64.87;92535.16;521808;28;815;-41
2023/10/28 00:24:34;;;;;;;1.80;1.20;;;;;;;15.81;64.81;92542.78;521434;28;933;-41
2023/10/28 00:24:50;;;;;;;1.43;0.93;;;;;;;15.80;65.08;92538.56;521886;28;777;-41
2023/10/28 00:25:06;;;;;;;2.60;1.23;;;;;;;15.78;65.16;92544.75;520543;28;853;-41
2023/10/28 00:25:28;;;;;;;3.03;1.40;;;;;;;15.77;65.37;92545.31;520444;28;785;-41
2023/10/28 00:25:45;;;;;;;1.40;1.20;;;;;;;15.72;65.74;92536.00;520083;28;945;-41
2023/10/28 00:26:01;;;;;;;1.20;1.10;;;;;;;15.71;65.58;92545.69;521936;28;817;-41
2023/10/28 00:26:17;;;;;;;1.85;1.20;;;;;;;15.71;65.73;92547.75;521856;28;920;-41
2023/10/28 00:26:32;;;;;;;2.40;1.17;;;;;;;15.71;65.79;92544.97;521789;28;1124;-41
2023/10/28 00:26:48;;;;;;;1.42;1.20;;;;;;;15.69;65.79;92540.00;521951;28;784;-41
2023/10/28 00:27:03;;;;;;;1.60;1.27;;;;;;;15.68;65.97;92543.41;521978;28;839;-41
2023/10/28 00:27:19;;;;;;;1.60;1.20;;;;;;;15.69;65.94;92544.84;521903;28;773;-41
2023/10/28 00:27:35;;;;;;;1.17;1.00;;;;;;;15.67;66.13;92544.72;520599;28;857;-41
2023/10/28 00:27:50;;;;;;;1.90;1.00;;;;;;;15.68;65.98;92549.69;521904;28;950;-41
2023/10/28 00:28:05;;;;;;;1.70;1.15;;;;;;;15.64;66.09;92541.09;521742;28;1075;-41
2023/10/28 00:28:21;;;;;;;1.10;1.00;;;;;;;15.67;66.20;92544.72;520913;28;1730;-41
2023/10/28 00:28:37;;;;;;;1.27;0.90;;;;;;;15.66;66.20;92541.22;520083;28;777;-42
2023/10/28 00:28:52;;;;;;;1.30;0.98;;;;;;;15.65;66.10;92541.81;519819;28;850;-42
2023/10/28 00:29:07;;;;;;;1.63;1.10;;;;;;;15.64;66.23;92543.88;519730;28;873;-42
2023/10/28 00:29:23;;;;;;;1.67;1.20;;;;;;;15.62;66.28;92543.75;520227;28;1096;-42
2023/10/28 00:29:39;;;;;;;1.20;1.10;;;;;;;15.61;66.21;92545.09;521711;28;1144;-42
2023/10/28 00:29:54;;;;;;;1.40;1.15;;;;;;;15.60;66.32;92540.84;521806;28;935;-42
2023/10/28 00:30:11;;;;;;;1.30;1.20;;;;;;;15.60;66.24;92545.69;521793;28;927;-42
2023/10/28 00:30:26;;;;;;;1.50;1.10;;;;;;;15.60;66.23;92540.13;521243;28;944;-42
2023/10/28 00:30:42;;;;;;;1.37;1.10;;;;;;;15.59;66.16;92538.69;521583;28;797;-42
2023/10/28 00:30:57;;;;;;;1.20;1.10;;;;;;;15.59;66.08;92535.91;521620;28;1732;-42
2023/10/28 00:31:17;;;;;;;1.20;1.00;;;;;;;15.57;66.26;92538.56;521034;28;959;-42
2023/10/28 00:31:32;;;;;;;1.05;1.00;;;;;;;15.58;66.18;92540.00;521808;28;883;-42
2023/10/28 00:31:50;;;;;;;1.65;1.17;;;;;;;15.57;66.13;92542.03;521862;28;1008;-43
2023/10/28 00:32:06;;;;;;;1.70;1.10;;;;;;;15.57;66.06;92541.34;520844;28;905;-42
2023/10/28 00:32:22;;;;;;;1.58;1.17;;;;;;;15.56;66.02;92537.81;519775;28;813;-42
2023/10/28 00:32:38;;;;;;;2.72;1.27;;;;;;;15.55;65.90;92541.22;521060;28;1096;-42
2023/10/28 00:32:58;;;;;;;2.50;1.10;;;;;;;15.54;65.99;92543.28;521846;28;821;-42
2023/10/28 00:33:15;;;;;;;1.40;1.00;;;;;;;15.55;66.04;92546.78;521870;28;841;-42
2023/10/28 00:33:31;;;;;;;1.10;0.95;;;;;;;15.54;66.03;92539.75;521740;28;833;-42
2023/10/28 00:33:46;;;;;;;1.30;1.13;;;;;;;15.54;66.10;92539.75;521759;28;1053;-42
2023/10/28 00:34:02;;;;;;;1.37;1.20;;;;;;;15.54;66.08;92543.28;521806;28;1215;-42
2023/10/28 00:34:18;;;;;;;1.20;1.10;;;;;;;15.55;66.07;92547.50;521882;28;859;-42
2023/10/28 00:34:33;;;;;;;1.70;1.20;;;;;;;15.55;66.05;92550.28;521863;28;845;-42
2023/10/28 00:34:49;;;;;;;1.67;1.20;;;;;;;15.53;66.01;92546.63;521874;28;919;-42
2023/10/28 00:35:07;;;;;;;1.23;1.13;;;;;;;15.53;66.02;92554.97;521938;28;885;-42
2023/10/28 00:35:22;;;;;;;1.27;1.17;;;;;;;15.53;65.99;92552.19;521403;28;911;-42
2023/10/28 00:35:38;;;;;;;1.37;1.10;;;;;;;15.51;66.04;92550.03;521157;28;962;-42
2023/10/28 00:35:54;;;;;;;2.10;1.20;;;;;;;15.52;66.07;92551.50;521806;28;832;-42
2023/10/28 00:36:11;;;;;;;1.75;1.20;;;;;;;15.53;65.88;92552.19;521854;28;1099;-42
2023/10/28 00:36:27;;;;;;;1.80;0.98;;;;;;;15.54;65.88;92559.22;521835;28;1762;-42
2023/10/28 00:36:42;;;;;;;2.42;1.00;;;;;;;15.53;65.89;92552.94;521371;28;1000;-42
2023/10/28 00:37:00;;;;;;;1.38;1.10;;;;;;;15.54;65.88;92559.22;521818;28;1120;-42
2023/10/28 00:37:17;;;;;;;1.35;1.20;;;;;;;15.54;65.81;92556.44;521894;28;865;-42
2023/10/28 00:37:33;;;;;;;1.45;1.20;;;;;;;15.55;66.02;92549.56;520521;28;1268;-42
2023/10/28 00:37:48;;;;;;;1.70;1.45;;;;;;;15.55;65.87;92555.13;521818;28;984;-42
2023/10/28 00:38:03;;;;;;;1.65;1.35;;;;;;;15.56;65.89;92556.56;521845;28;1100;-42
2023/10/28 00:38:19;;;;;;;1.20;1.10;;;;;;;15.52;65.88;92547.97;521185;28;1692;-42
2023/10/28 00:38:34;;;;;;;1.43;1.20;;;;;;;15.46;65.91;92551.13;521238;28;970;-42
2023/10/28 00:38:50;;;;;;;1.38;1.20;;;;;;;15.50;65.88;92553.41;519918;28;848;-42
2023/10/28 00:39:06;;;;;;;2.50;1.20;;;;;;;15.50;65.70;92553.41;519755;28;896;-42
2023/10/28 00:39:21;;;;;;;2.42;1.10;;;;;;;15.50;65.78;92556.94;519818;28;1088;-42
2023/10/28 00:39:37;;;;;;;1.20;1.10;;;;;;;15.49;65.84;92544.34;520838;28;877;-42
2023/10/28 00:39:52;;;;;;;1.30;1.20;;;;;;;15.51;65.77;92550.03;521926;28;781;-42
2023/10/28 00:40:08;;;;;;;2.07;1.20;;;;;;;15.51;65.85;92546.50;521794;28;1009;-42
2023/10/28 00:40:31;;;;;;;1.83;1.02;;;;;;;15.51;66.04;92540.94;521764;28;1239;-42
2023/10/28 00:40:47;;;;;;;0.90;0.90;;;;;;;15.52;65.84;92545.94;519773;28;2040;-42
2023/10/28 00:41:03;;;;;;;1.33;1.23;;;;;;;15.53;65.81;92547.38;519734;28;895;-42
2023/10/28 00:41:18;;;;;;;1.30;1.20;;;;;;;15.54;65.91;92542.53;519887;28;793;-42
2023/10/28 00:41:35;;;;;;;1.00;1.00;;;;;;;15.53;65.96;92544.59;521471;28;1721;-42
2023/10/28 00:41:50;;;;;;;1.50;1.10;;;;;;;15.54;65.66;92536.97;521885;28;892;-42
2023/10/28 00:42:06;;;;;;;1.57;1.17;;;;;;;15.53;65.72;92536.25;521929;28;892;-42
2023/10/28 00:42:22;;;;;;;1.30;1.20;;;;;;;15.53;65.67;92539.03;521911;28;913;-42
2023/10/28 00:42:38;;;;;;;2.77;1.50;;;;;;;15.28;65.70;92504.75;521804;28;887;-42
2023/10/28 00:42:53;;;;;;;2.78;1.60;;;;;;;15.54;65.69;92548.09;521999;28;813;-42
2023/10/28 00:43:10;;;;;;;1.67;1.53;;;;;;;15.53;65.72;92541.06;521863;28;1124;-42
2023/10/28 00:43:26;;;;;;;1.48;1.38;;;;;;;15.53;65.64;92541.06;521928;28;950;-42
2023/10/28 00:43:41;;;;;;;1.27;1.17;;;;;;;15.50;65.83;92533.94;521718;28;820;-42
2023/10/28 00:43:57;;;;;;;1.10;1.00;;;;;;;15.48;65.92;92540.13;521962;28;944;-42
2023/10/28 00:44:12;;;;;;;1.55;1.10;;;;;;;15.47;65.89;92546.28;521855;28;1067;-42
2023/10/28 00:44:32;;;;;;;2.43;1.20;;;;;;;15.46;65.92;92548.34;521952;28;832;-42
2023/10/28 00:44:47;;;;;;;2.08;1.10;;;;;;;15.43;66.22;92551.56;519831;28;971;-42
2023/10/28 00:45:03;;;;;;;1.30;1.10;;;;;;;15.46;66.14;92558.75;519874;28;836;-42
2023/10/28 00:45:19;;;;;;;1.77;1.20;;;;;;;15.46;66.24;92561.53;519850;28;869;-42
2023/10/28 00:45:34;;;;;;;2.10;1.33;;;;;;;15.45;66.18;92551.72;520103;28;793;-42
2023/10/28 00:45:51;;;;;;;1.50;1.35;;;;;;;15.46;66.27;92562.25;521753;28;927;-42
2023/10/28 00:46:07;;;;;;;1.85;1.30;;;;;;;15.46;66.27;92553.19;521700;28;1325;-42
2023/10/28 00:46:22;;;;;;;2.10;1.40;;;;;;;15.44;66.20;92558.63;519762;28;1016;-42
2023/10/28 00:46:37;;;;;;;1.80;1.15;;;;;;;15.43;66.39;92560.66;517335;28;805;-42
2023/10/28 00:46:53;;;;;;;2.47;1.07;;;;;;;15.43;66.19;92554.34;517769;28;824;-42
2023/10/28 00:47:09;;;;;;;2.80;1.23;;;;;;;15.43;66.20;92549.53;517684;28;1042;-42
2023/10/28 00:47:24;;;;;;;2.42;1.30;;;;;;;15.43;66.11;92549.53;515711;28;825;-42
2023/10/28 00:47:44;;;;;;;2.10;1.30;;;;;;;15.45;65.93;92551.72;515668;28;960;-42
2023/10/28 00:48:00;;;;;;;1.35;1.20;;;;;;;15.00;65.87;92484.25;514667;28;822;-42
2023/10/28 00:48:15;;;;;;;1.80;1.30;;;;;;;15.46;65.82;92553.19;514698;28;789;-42
2023/10/28 00:48:31;;;;;;;2.53;1.38;;;;;;;15.45;65.93;92552.44;516168;28;1441;-42
2023/10/28 00:48:46;;;;;;;3.03;1.30;;;;;;;15.46;65.93;92550.41;515692;28;794;-42
2023/10/28 00:49:02;;;;;;;2.20;1.17;;;;;;;15.46;65.95;92550.41;516877;28;1229;-42
2023/10/28 00:49:18;;;;;;;1.20;1.10;;;;;;;15.45;65.92;92546.88;512610;28;2376;-42
2023/10/28 00:49:33;;;;;;;1.63;1.17;;;;;;;15.46;65.95;92553.19;514498;28;893;-42
2023/10/28 00:49:50;;;;;;;2.50;1.50;;;;;;;15.46;65.99;92544.84;513991;28;1234;-43
2023/10/28 00:50:16;;;;;;;1.75;1.45;;;;;;;15.46;65.99;92547.63;515639;28;854;-42
2023/10/28 00:50:31;;;;;;;1.40;1.25;;;;;;;15.44;66.01;92547.50;515066;28;1516;-42
2023/10/28 00:50:47;;;;;;;1.92;1.33;;;;;;;15.45;66.00;92554.50;518466;28;991;-42
2023/10/28 00:51:03;;;;;;;1.93;1.27;;;;;;;15.45;66.02;92551.72;522560;28;1381;-42
2023/10/28 00:51:19;;;;;;;1.40;1.17;;;;;;;15.44;65.93;92556.53;516666;28;1277;-42
2023/10/28 00:51:35;;;;;;;1.20;1.10;;;;;;;15.42;66.26;92555.69;517127;28;837;-42
2023/10/28 00:51:51;;;;;;;2.70;1.30;;;;;;;15.42;66.23;92561.94;515701;28;1094;-42
2023/10/28 00:52:07;;;;;;;2.35;1.08;;;;;;;15.42;66.14;92561.25;517169;28;1288;-42
2023/10/28 00:52:23;;;;;;;1.67;1.00;;;;;;;15.41;66.21;92563.28;518333;28;1223;-42
2023/10/28 00:52:40;;;;;;;1.88;1.17;;;;;;;15.41;66.21;92571.63;519989;28;1756;-42
2023/10/28 00:52:55;;;;;;;1.70;1.20;;;;;;;15.41;66.39;92568.84;520540;28;986;-42
2023/10/28 00:53:11;;;;;;;1.83;1.30;;;;;;;15.42;66.41;92566.81;521729;28;876;-42
2023/10/28 00:53:27;;;;;;;1.30;1.20;;;;;;;15.41;66.45;92568.13;521801;28;834;-42
2023/10/28 00:53:42;;;;;;;1.42;1.20;;;;;;;15.41;66.42;92570.91;519780;28;1007;-42
2023/10/28 00:53:58;;;;;;;1.30;1.20;;;;;;;15.42;66.32;92572.38;519696;28;923;-42
2023/10/28 00:54:13;;;;;;;1.35;1.15;;;;;;;15.40;66.29;92566.69;519619;28;923;-42
2023/10/28 00:54:29;;;;;;;1.60;1.20;;;;;;;15.40;66.20;92572.25;519556;28;1110;-42
2023/10/28 00:54:47;;;;;;;1.83;1.27;;;;;;;15.39;66.22;92568.75;517743;28;1751;-42
2023/10/28 00:55:03;;;;;;;2.97;1.20;;;;;;;15.40;65.90;92563.91;517934;28;886;-42
2023/10/28 00:55:21;;;;;;;3.10;1.48;;;;;;;15.40;66.05;92561.13;519799;28;892;-42
2023/10/28 00:55:37;;;;;;;1.75;1.40;;;;;;;15.40;65.78;92569.47;520831;28;879;-42
2023/10/28 00:55:54;;;;;;;1.83;1.35;;;;;;;15.36;65.94;92561.59;519590;28;1105;-42
2023/10/28 00:56:11;;;;;;;1.67;1.30;;;;;;;15.39;65.98;92565.97;517625;28;1093;-42
2023/10/28 00:56:27;;;;;;;1.92;1.27;;;;;;;15.38;65.91;92570.06;517174;28;1285;-42
2023/10/28 00:56:42;;;;;;;3.40;1.23;;;;;;;15.38;66.04;92566.53;518470;28;903;-42
2023/10/28 00:56:58;;;;;;;3.77;1.23;;;;;;;15.34;66.10;92560.72;519556;28;885;-42
2023/10/28 00:57:17;;;;;;;2.78;1.30;;;;;;;15.35;66.02;92562.94;519628;28;1154;-42
2023/10/28 00:57:33;;;;;;;2.35;1.27;;;;;;;15.33;66.21;92565.59;526031;28;1551;-42
2023/10/28 00:57:49;;;;;;;3.53;1.30;;;;;;;15.33;66.28;92562.06;519694;28;1107;-42
2023/10/28 00:58:06;;;;;;;2.20;1.38;;;;;;;15.32;66.14;92564.13;520977;28;1124;-42
2023/10/28 00:58:22;;;;;;;2.00;1.20;;;;;;;15.32;66.15;92555.03;521660;28;916;-42
2023/10/28 00:58:39;;;;;;;2.05;1.30;;;;;;;15.31;66.25;92557.09;520721;28;1104;-42
2023/10/28 00:58:56;;;;;;;1.98;1.48;;;;;;;15.31;66.05;92557.09;519853;28;936;-42
2023/10/28 00:59:12;;;;;;;3.13;1.70;;;;;;;15.29;66.08;92554.19;519844;28;849;-42
2023/10/28 00:59:28;;;;;;;3.27;1.60;;;;;;;15.25;66.16;92556.72;519939;28;1074;-42
2023/10/28 00:59:43;;;;;;;2.85;1.58;;;;;;;15.22;66.03;92554.44;521699;28;821;-42
2023/10/28 00:59:59;;;;;;;3.20;1.70;;;;;;;15.18;66.13;92552.13;521750;28;1173;-42
2023/10/28 01:00:15;;;;;;;2.67;1.55;;;;;;;15.05;66.21;92538.78;519693;28;887;-42
2023/10/28 01:00:30;;;;;;;2.03;1.50;;;;;;;15.18;66.18;92555.63;519407;28;1026;-42
2023/10/28 01:00:46;;;;;;;1.83;1.60;;;;;;;15.16;66.18;92555.50;519496;28;1985;-42
2023/10/28 01:01:01;;;;;;;2.20;1.50;;;;;;;15.16;66.13;92554.75;519003;28;1429;-42
2023/10/28 01:01:17;;;;;;;1.98;1.40;;;;;;;15.16;66.06;92560.31;517029;28;1476;-42
2023/10/28 01:01:32;;;;;;;1.53;1.40;;;;;;;15.16;65.85;92552.72;517920;28;1784;-42
2023/10/28 01:01:48;;;;;;;2.08;1.38;;;;;;;15.17;66.04;92561.78;515635;28;935;-43
2023/10/28 01:02:03;;;;;;;2.50;1.50;;;;;;;15.13;66.21;92555.97;516052;28;920;-42
2023/10/28 01:02:18;;;;;;;2.57;1.60;;;;;;;15.16;66.21;92560.31;517645;28;951;-42
2023/10/28 01:02:42;;;;;;;3.25;1.80;;;;;;;15.16;66.27;92557.53;518216;28;1597;-42
2023/10/28 01:02:57;;;;;;;3.78;2.10;;;;;;;15.15;66.31;92564.44;519676;28;948;-42
2023/10/28 01:03:13;;;;;;;5.47;1.95;;;;;;;15.14;66.37;92560.91;518772;28;825;-42
2023/10/28 01:03:30;;;;;;;4.43;1.73;;;;;;;15.14;66.32;92552.59;517622;28;1246;-42
2023/10/28 01:03:47;;;;;;;2.03;1.83;;;;;;;14.82;65.97;92505.34;519245;28;1029;-42
2023/10/28 01:04:04;;;;;;;2.72;2.20;;;;;;;15.13;65.64;92551.16;520832;28;1104;-42
2023/10/28 01:04:20;;;;;;;2.70;2.10;;;;;;;15.13;65.75;92544.84;521840;28;1639;-42
2023/10/28 01:04:36;;;;;;;3.35;1.95;;;;;;;15.12;65.67;92543.38;521314;28;1048;-42
2023/10/28 01:04:52;;;;;;;4.35;2.10;;;;;;;15.11;65.82;92544.72;521668;28;979;-42
2023/10/28 01:05:11;;;;;;;4.60;2.30;;;;;;;15.06;65.91;92545.78;521774;28;848;-42
2023/10/28 01:05:27;;;;;;;5.85;2.92;;;;;;;15.03;66.12;92552.53;521599;28;1405;-42
2023/10/28 01:05:45;;;;;;;5.43;3.22;;;;;;;15.02;66.30;92557.38;521740;28;870;-42
2023/10/28 01:06:00;;;;;;;4.90;2.80;;;;;;;15.01;66.29;92558.72;521669;28;1009;-42
2023/10/28 01:06:16;;;;;;;4.23;2.60;;;;;;;14.96;66.46;92561.84;517634;28;928;-43
2023/10/28 01:06:31;;;;;;;4.45;2.60;;;;;;;14.99;66.54;92564.13;518920;28;1746;-42
2023/10/28 01:06:47;;;;;;;3.90;2.40;;;;;;;14.98;66.11;92562.69;517687;28;841;-42
2023/10/28 01:07:02;;;;;;;4.38;2.65;;;;;;;14.97;66.55;92566.78;517370;28;2291;-42
2023/10/28 01:07:19;;;;;;;5.50;2.85;;;;;;;14.98;66.75;92561.97;516745;28;944;-42
2023/10/28 01:07:36;;;;;;;5.75;2.85;;;;;;;14.97;66.86;92566.78;517957;28;957;-42
2023/10/28 01:07:51;;;;;;;6.63;2.92;;;;;;;14.96;66.72;92568.13;519626;28;865;-42
2023/10/28 01:08:06;;;;;;;6.55;3.00;;;;;;;14.96;66.89;92568.13;519725;28;892;-42
2023/10/28 01:08:22;;;;;;;5.50;3.20;;;;;;;14.97;66.83;92569.56;519651;28;908;-42
2023/10/28 01:08:37;;;;;;;4.97;3.00;;;;;;;14.97;66.53;92557.72;521007;28;1153;-42
2023/10/28 01:08:52;;;;;;;4.20;2.85;;;;;;;14.97;66.65;92558.44;521940;28;817;-42
2023/10/28 01:09:08;;;;;;;4.73;3.23;;;;;;;14.95;66.54;92561.09;521690;28;1740;-42
2023/10/28 01:09:23;;;;;;;4.53;3.43;;;;;;;14.96;66.36;92557.00;521841;28;1484;-42
2023/10/28 01:09:46;;;;;;;5.15;3.58;;;;;;;14.96;66.29;92557.00;521806;28;857;-42
2023/10/28 01:10:03;;;;;;;5.30;3.30;;;;;;;14.97;66.32;92554.94;520996;28;880;-42
2023/10/28 01:10:29;;;;;;;4.28;3.05;;;;;;;14.96;66.35;92565.34;519879;28;930;-42
2023/10/28 01:10:44;;;;;;;5.05;2.38;;;;;;;14.96;66.42;92561.84;521521;28;885;-42
2023/10/28 01:11:03;;;;;;;2.50;1.67;;;;;;;14.83;66.48;92543.66;521913;28;873;-42
2023/10/28 01:11:18;;;;;;;2.08;1.40;;;;;;;14.94;66.77;92570.75;520361;28;1599;-43
2023/10/28 01:11:39;;;;;;;2.25;1.58;;;;;;;14.73;66.88;92548.56;520844;28;930;-43
2023/10/28 01:11:55;;;;;;;3.13;1.90;;;;;;;14.93;67.04;92569.31;521881;28;1005;-43
2023/10/28 01:12:13;;;;;;;2.97;1.88;;;;;;;14.91;66.98;92580.31;521952;28;887;-43
2023/10/28 01:12:29;;;;;;;2.08;1.65;;;;;;;14.91;67.21;92579.56;521784;28;999;-43
2023/10/28 01:12:44;;;;;;;2.90;1.97;;;;;;;14.92;67.39;92581.03;521629;28;877;-43
2023/10/28 01:13:00;;;;;;;2.97;1.83;;;;;;;14.92;67.50;92592.16;521810;28;1069;-43
2023/10/28 01:13:15;;;;;;;2.60;1.77;;;;;;;14.90;67.55;92578.13;521921;28;809;-42
2023/10/28 01:13:31;;;;;;;2.27;1.77;;;;;;;14.92;67.65;92590.09;520841;28;926;-43
2023/10/28 01:13:46;;;;;;;5.70;2.00;;;;;;;14.93;67.74;92579.69;521887;28;841;-42
2023/10/28 01:14:02;;;;;;;5.73;2.20;;;;;;;14.76;67.92;92564.06;521669;28;2344;-42
2023/10/28 01:14:17;;;;;;;2.50;2.00;;;;;;;14.89;67.85;92577.41;519619;28;813;-42
2023/10/28 01:14:32;;;;;;;2.83;2.00;;;;;;;14.91;67.85;92582.34;519176;28;1018;-42
2023/10/28 01:14:48;;;;;;;3.20;2.00;;;;;;;14.92;67.70;92581.03;519598;28;904;-42
2023/10/28 01:15:04;;;;;;;3.10;2.13;;;;;;;14.92;67.57;92570.63;519710;28;848;-42
2023/10/28 01:15:22;;;;;;;2.50;2.00;;;;;;;14.93;67.60;92568.59;519671;28;833;-42
2023/10/28 01:15:37;;;;;;;2.53;1.83;;;;;;;14.93;67.64;92577.66;519216;28;1068;-42
2023/10/28 01:15:52;;;;;;;3.13;2.00;;;;;;;14.94;67.55;92570.75;519716;28;1685;-42
2023/10/28 01:16:08;;;;;;;2.87;1.90;;;;;;;14.94;67.66;92570.75;521215;28;1420;-42
2023/10/28 01:16:23;;;;;;;3.63;2.10;;;;;;;14.94;67.56;92570.75;521898;28;1045;-42
2023/10/28 01:16:40;;;;;;;4.07;2.37;;;;;;;14.94;67.66;92567.97;521395;28;852;-42
2023/10/28 01:16:56;;;;;;;3.33;2.08;;;;;;;14.96;67.52;92570.19;521929;28;841;-42
2023/10/28 01:17:13;;;;;;;3.53;2.15;;;;;;;14.95;67.51;92572.22;521811;28;914;-42
2023/10/28 01:17:29;;;;;;;4.22;2.42;;;;;;;14.95;67.58;92569.44;521680;28;1104;-42
2023/10/28 01:17:45;;;;;;;3.47;2.28;;;;;;;14.97;67.50;92577.91;521918;28;1067;-42
2023/10/28 01:18:00;;;;;;;2.35;1.98;;;;;;;14.96;67.75;92575.75;521862;28;856;-42
2023/10/28 01:18:16;;;;;;;2.70;1.93;;;;;;;14.93;67.59;92563.75;520311;28;781;-42
2023/10/28 01:18:31;;;;;;;3.15;1.98;;;;;;;14.96;67.59;92576.47;520102;28;840;-42